Time;durP1;ratioP1;P1;durP2;ratioP2;P2;SDS_P1;SDS_P2;PMS_P1;PMS_P2;Temp;Humidity;BMP_temperature;BMP_pressure;BME280_temperature;BME280_humidity;BME280_pressure;Samples;Min_cycle;Max_cycle;Signal;HPM_P1;HPM_P2
2021/04/27 00:00:30;;;;;;;7.55;5.78;;;;;;;;;;5022714;28;20170;-87
2021/04/27 00:02:56;;;;;;;8.23;6.18;;;;;;;;;;5035277;28;20179;-87
2021/04/27 00:05:23;;;;;;;10.93;6.97;;;;;;;;;;5036620;28;20174;-88
2021/04/27 00:07:49;;;;;;;9.63;6.18;;;;;;;;;;5020011;28;20217;-87
2021/04/27 00:10:15;;;;;;;6.82;5.93;;;;;;;;;;5036814;28;20186;-87
2021/04/27 00:12:42;;;;;;;9.48;6.45;;;;;;;;;;5024273;28;20191;-87
2021/04/27 00:15:12;;;;;;;9.32;6.38;;;;;;;;;;5020729;28;20178;-88
2021/04/27 00:17:38;;;;;;;8.10;6.85;;;;;;;;;;5021494;28;20215;-88
2021/04/27 00:20:05;;;;;;;9.30;6.97;;;;;;;;;;5002661;28;20229;-87
2021/04/27 00:22:31;;;;;;;7.90;6.30;;;;;;;;;;5001964;28;20179;-86
2021/04/27 00:24:57;;;;;;;8.73;6.85;;;;;;;;;;5024106;28;20206;-87
2021/04/27 00:27:23;;;;;;;8.70;7.88;;;;;;;;;;5020146;28;20190;-87
2021/04/27 00:29:49;;;;;;;7.72;6.72;;;;;;;;;;5036007;28;20166;-86
2021/04/27 00:32:15;;;;;;;8.32;6.60;;;;;;;;;;5020096;28;20624;-85
2021/04/27 00:34:41;;;;;;;12.38;6.70;;;;;;;;;;5019815;28;20201;-86
2021/04/27 00:37:07;;;;;;;9.73;6.88;;;;;;;;;;5037285;28;20217;-88
2021/04/27 00:39:33;;;;;;;8.02;7.03;;;;;;;;;;5050699;28;20241;-86
2021/04/27 00:41:59;;;;;;;12.07;7.70;;;;;;;;;;5044012;28;20186;-85
2021/04/27 00:44:25;;;;;;;9.30;7.22;;;;;;;;;;5040621;28;20173;-85
2021/04/27 00:46:52;;;;;;;8.18;6.93;;;;;;;;;;5016718;28;20186;-87
2021/04/27 00:49:18;;;;;;;13.18;6.85;;;;;;;;;;5027017;28;20695;-86
2021/04/27 00:51:44;;;;;;;7.00;6.18;;;;;;;;;;5054949;28;20201;-85
2021/04/27 00:54:10;;;;;;;12.02;7.78;;;;;;;;;;5035291;28;20194;-86
2021/04/27 00:56:37;;;;;;;8.55;7.03;;;;;;;;;;5033545;28;20213;-86
2021/04/27 00:59:04;;;;;;;10.13;7.30;;;;;;;;;;5010172;28;20186;-83
2021/04/27 01:01:30;;;;;;;9.63;7.75;;;;;;;;;;5037649;28;20182;-87
2021/04/27 01:03:57;;;;;;;10.45;7.25;;;;;;;;;;5024986;28;20212;-85
2021/04/27 01:06:23;;;;;;;9.50;8.25;;;;;;;;;;5028215;28;20186;-86
2021/04/27 01:09:04;;;;;;;8.82;7.10;;;;;;;;;;5039414;28;20178;-86
2021/04/27 01:11:45;;;;;;;13.00;8.13;;;;;;;;;;5055093;28;20177;-85
2021/04/27 01:14:13;;;;;;;10.15;7.07;;;;;;;;;;5021696;28;20177;-86
2021/04/27 01:16:43;;;;;;;11.13;7.97;;;;;;;;;;5020483;28;20574;-86
2021/04/27 01:19:10;;;;;;;13.48;8.18;;;;;;;;;;5020110;28;20286;-87
2021/04/27 01:21:36;;;;;;;9.52;7.93;;;;;;;;;;5037925;28;20182;-86
2021/04/27 01:24:38;;;;;;;11.98;8.77;;;;;;;;;;5053750;28;20644;-86
2021/04/27 01:27:04;;;;;;;13.80;7.78;;;;;;;;;;4961670;28;20293;-87
2021/04/27 01:29:33;;;;;;;11.98;9.40;;;;;;;;;;4962243;28;20192;-86
2021/04/27 01:32:01;;;;;;;13.52;7.68;;;;;;;;;;4943542;29;20199;-86
2021/04/27 01:34:29;;;;;;;10.85;7.90;;;;;;;;;;4961498;28;20196;-88
2021/04/27 01:36:55;;;;;;;14.65;8.65;;;;;;;;;;4957629;28;20216;-87
2021/04/27 01:39:25;;;;;;;11.00;9.05;;;;;;;;;;4965018;28;20218;-85
2021/04/27 01:41:51;;;;;;;17.60;10.18;;;;;;;;;;4942992;29;20252;-86
2021/04/27 01:44:18;;;;;;;16.23;9.77;;;;;;;;;;4936598;29;20182;-85
2021/04/27 01:46:45;;;;;;;12.60;9.35;;;;;;;;;;4937682;29;20286;-88
2021/04/27 01:49:12;;;;;;;14.88;9.30;;;;;;;;;;4941077;29;20633;-87
2021/04/27 01:51:38;;;;;;;14.13;9.23;;;;;;;;;;4931475;29;20256;-86
2021/04/27 01:54:04;;;;;;;12.63;9.02;;;;;;;;;;4933521;29;20217;-85
2021/04/27 01:56:30;;;;;;;13.27;10.63;;;;;;;;;;4941717;29;20717;-86
2021/04/27 01:58:57;;;;;;;12.15;10.40;;;;;;;;;;4948863;28;20595;-87
2021/04/27 02:01:23;;;;;;;12.38;9.68;;;;;;;;;;4966872;28;20277;-87
2021/04/27 02:03:49;;;;;;;13.60;9.95;;;;;;;;;;5034597;28;20222;-87
2021/04/27 02:06:15;;;;;;;11.13;9.32;;;;;;;;;;5038126;28;20182;-86
2021/04/27 02:08:46;;;;;;;14.13;10.77;;;;;;;;;;5044822;28;20209;-87
2021/04/27 02:11:12;;;;;;;13.25;9.60;;;;;;;;;;5034292;28;20270;-85
2021/04/27 02:13:38;;;;;;;16.60;10.32;;;;;;;;;;5032236;28;20656;-86
2021/04/27 02:16:05;;;;;;;12.60;9.77;;;;;;;;;;5020915;28;20209;-84
2021/04/27 02:18:50;;;;;;;14.30;10.75;;;;;;;;;;5046156;28;20213;-87
2021/04/27 02:21:17;;;;;;;14.15;10.40;;;;;;;;;;5039797;28;20179;-86
2021/04/27 02:23:43;;;;;;;15.27;11.30;;;;;;;;;;5015705;28;20174;-86
2021/04/27 02:26:10;;;;;;;14.05;10.32;;;;;;;;;;5032285;28;20197;-86
2021/04/27 02:28:36;;;;;;;17.70;10.00;;;;;;;;;;5032997;28;20189;-88
2021/04/27 02:31:02;;;;;;;12.38;11.13;;;;;;;;;;5021126;28;20198;-88
2021/04/27 02:33:28;;;;;;;15.52;11.98;;;;;;;;;;5019692;28;20217;-87
2021/04/27 02:35:54;;;;;;;15.13;10.20;;;;;;;;;;5018076;28;20174;-87
2021/04/27 02:38:21;;;;;;;13.93;10.23;;;;;;;;;;5019419;28;20217;-85
2021/04/27 02:40:50;;;;;;;14.02;11.48;;;;;;;;;;5023836;28;20201;-86
2021/04/27 02:43:16;;;;;;;14.25;11.35;;;;;;;;;;5007435;28;20198;-87
2021/04/27 02:45:42;;;;;;;10.77;9.45;;;;;;;;;;5012068;28;20178;-88
2021/04/27 02:48:10;;;;;;;15.27;11.90;;;;;;;;;;5039859;28;20197;-87
2021/04/27 02:50:37;;;;;;;15.10;10.73;;;;;;;;;;5025650;28;20182;-87
2021/04/27 02:53:03;;;;;;;16.02;10.93;;;;;;;;;;5007653;28;20209;-87
2021/04/27 02:55:29;;;;;;;13.07;10.07;;;;;;;;;;5001169;28;20194;-87
2021/04/27 02:57:55;;;;;;;12.35;10.48;;;;;;;;;;5023515;28;20206;-87
2021/04/27 03:00:21;;;;;;;13.67;11.10;;;;;;;;;;5021239;28;20178;-88
2021/04/27 03:02:47;;;;;;;12.90;10.60;;;;;;;;;;5025798;28;20424;-86
2021/04/27 03:05:13;;;;;;;19.00;11.90;;;;;;;;;;5025972;28;20182;-89
2021/04/27 03:07:39;;;;;;;14.20;11.10;;;;;;;;;;5023896;28;20444;-88
2021/04/27 03:10:06;;;;;;;17.20;11.57;;;;;;;;;;5009572;28;20186;-87
2021/04/27 03:12:32;;;;;;;14.95;11.27;;;;;;;;;;5011755;28;20225;-87
2021/04/27 03:14:58;;;;;;;15.70;11.32;;;;;;;;;;5006592;28;20186;-87
2021/04/27 03:17:24;;;;;;;14.23;10.95;;;;;;;;;;5039236;28;20217;-86
2021/04/27 03:19:50;;;;;;;17.13;11.68;;;;;;;;;;5025898;28;20187;-87
2021/04/27 03:22:16;;;;;;;16.92;11.70;;;;;;;;;;5017668;28;20187;-87
2021/04/27 03:24:42;;;;;;;14.27;12.10;;;;;;;;;;5042116;28;20194;-88
2021/04/27 03:27:08;;;;;;;17.33;12.15;;;;;;;;;;5039675;28;20213;-87
2021/04/27 03:29:34;;;;;;;20.33;13.10;;;;;;;;;;5025007;28;20453;-87
2021/04/27 03:32:00;;;;;;;14.93;12.27;;;;;;;;;;5024982;28;20448;-87
2021/04/27 03:34:26;;;;;;;17.63;12.35;;;;;;;;;;5023437;28;20564;-85
2021/04/27 03:36:52;;;;;;;14.52;10.43;;;;;;;;;;5033201;28;20215;-88
2021/04/27 03:39:18;;;;;;;18.33;11.93;;;;;;;;;;5037280;28;20217;-87
2021/04/27 03:41:44;;;;;;;18.48;11.88;;;;;;;;;;5042067;28;20179;-85
2021/04/27 03:44:10;;;;;;;20.52;12.95;;;;;;;;;;5023686;28;20191;-87
2021/04/27 03:46:36;;;;;;;16.20;12.20;;;;;;;;;;5006351;28;20189;-87
2021/04/27 03:49:02;;;;;;;18.98;12.00;;;;;;;;;;5025147;28;20187;-87
2021/04/27 03:51:28;;;;;;;14.98;13.07;;;;;;;;;;5039862;28;20238;-86
2021/04/27 03:53:54;;;;;;;18.15;13.05;;;;;;;;;;5028271;28;20187;-86
2021/04/27 03:56:20;;;;;;;19.60;13.85;;;;;;;;;;5022575;28;20648;-87
2021/04/27 03:58:46;;;;;;;13.85;11.60;;;;;;;;;;5002742;28;20262;-87
2021/04/27 04:01:12;;;;;;;16.98;12.88;;;;;;;;;;5005356;28;20179;-87
2021/04/27 04:03:39;;;;;;;16.75;13.35;;;;;;;;;;5023603;28;20240;-85
2021/04/27 04:06:05;;;;;;;18.67;12.63;;;;;;;;;;5020760;28;20191;-87
2021/04/27 04:08:31;;;;;;;21.00;13.30;;;;;;;;;;5035862;28;20178;-87
2021/04/27 04:10:57;;;;;;;17.02;12.23;;;;;;;;;;5018807;28;20191;-87
2021/04/27 04:13:23;;;;;;;16.83;12.85;;;;;;;;;;5019967;28;20187;-87
2021/04/27 04:15:49;;;;;;;19.93;12.87;;;;;;;;;;5026239;28;20189;-84
2021/04/27 04:18:15;;;;;;;15.83;12.10;;;;;;;;;;5020296;28;20471;-86
2021/04/27 04:20:41;;;;;;;19.25;13.88;;;;;;;;;;5026053;28;20508;-87
2021/04/27 04:23:07;;;;;;;19.00;12.57;;;;;;;;;;5018972;28;20214;-87
2021/04/27 04:25:33;;;;;;;14.32;12.27;;;;;;;;;;5018585;28;20186;-87
2021/04/27 04:27:59;;;;;;;16.75;12.60;;;;;;;;;;5021494;28;20219;-87
2021/04/27 04:30:25;;;;;;;13.70;11.50;;;;;;;;;;5037091;28;20237;-87
2021/04/27 04:32:53;;;;;;;17.00;12.75;;;;;;;;;;5035387;28;20773;-89
2021/04/27 04:35:20;;;;;;;15.50;13.07;;;;;;;;;;5021203;28;20182;-90
2021/04/27 04:37:46;;;;;;;16.30;13.10;;;;;;;;;;5019580;28;20659;-84
2021/04/27 04:40:13;;;;;;;17.67;13.40;;;;;;;;;;5013658;28;20223;-87
2021/04/27 04:42:40;;;;;;;19.10;14.25;;;;;;;;;;5020255;28;20206;-86
2021/04/27 04:45:06;;;;;;;16.83;13.52;;;;;;;;;;5040604;28;20561;-86
2021/04/27 04:47:32;;;;;;;17.30;12.45;;;;;;;;;;5041045;28;20522;-87
2021/04/27 04:49:59;;;;;;;17.43;14.20;;;;;;;;;;5038506;28;20201;-86
2021/04/27 04:52:25;;;;;;;14.68;12.23;;;;;;;;;;5039204;28;20441;-85
2021/04/27 04:54:51;;;;;;;19.30;14.75;;;;;;;;;;5022956;28;20198;-87
2021/04/27 04:57:17;;;;;;;16.98;15.02;;;;;;;;;;5043812;28;20193;-86
2021/04/27 04:59:43;;;;;;;14.70;11.73;;;;;;;;;;5041718;28;20173;-84
2021/04/27 05:02:09;;;;;;;23.27;14.20;;;;;;;;;;5037199;28;20178;-83
2021/04/27 05:04:35;;;;;;;18.63;13.82;;;;;;;;;;5020518;28;20429;-86
2021/04/27 05:07:07;;;;;;;18.00;14.98;;;;;;;;;;5041922;28;20181;-86
2021/04/27 05:09:33;;;;;;;16.95;13.70;;;;;;;;;;5038497;28;20200;-87
2021/04/27 05:11:59;;;;;;;19.67;14.23;;;;;;;;;;5042505;28;20178;-84
2021/04/27 05:14:25;;;;;;;18.90;15.75;;;;;;;;;;5048363;28;20641;-86
2021/04/27 05:16:52;;;;;;;18.08;14.75;;;;;;;;;;5037299;28;20209;-86
2021/04/27 05:19:18;;;;;;;24.20;16.02;;;;;;;;;;5022113;28;20604;-86
2021/04/27 05:21:44;;;;;;;19.70;14.35;;;;;;;;;;5041884;28;20178;-86
2021/04/27 05:24:10;;;;;;;16.35;13.82;;;;;;;;;;5049494;28;20189;-88
2021/04/27 05:26:36;;;;;;;23.75;14.40;;;;;;;;;;5039986;28;20178;-87
2021/04/27 05:29:03;;;;;;;23.30;15.18;;;;;;;;;;5017221;28;20181;-87
2021/04/27 05:31:29;;;;;;;23.05;14.48;;;;;;;;;;5041738;28;20666;-86
2021/04/27 05:33:55;;;;;;;17.52;13.57;;;;;;;;;;5023628;28;20693;-87
2021/04/27 05:36:21;;;;;;;17.88;14.25;;;;;;;;;;5039209;28;20256;-85
2021/04/27 05:38:47;;;;;;;20.07;14.93;;;;;;;;;;5047826;28;20722;-85
2021/04/27 05:41:13;;;;;;;20.53;14.67;;;;;;;;;;5030225;28;20485;-85
2021/04/27 05:43:39;;;;;;;21.02;13.82;;;;;;;;;;5022203;28;20430;-86
2021/04/27 05:46:05;;;;;;;18.00;14.88;;;;;;;;;;5023039;28;20197;-87
2021/04/27 05:48:31;;;;;;;16.42;14.35;;;;;;;;;;5006056;28;20209;-85
2021/04/27 05:50:57;;;;;;;19.07;13.33;;;;;;;;;;5033199;28;20171;-82
2021/04/27 05:53:23;;;;;;;19.67;14.10;;;;;;;;;;5034234;28;20453;-84
2021/04/27 05:55:50;;;;;;;16.05;13.68;;;;;;;;;;5001837;28;20428;-84
2021/04/27 05:58:16;;;;;;;16.23;12.93;;;;;;;;;;5034841;28;20213;-87
2021/04/27 06:00:42;;;;;;;18.67;13.82;;;;;;;;;;5022365;28;20183;-86
2021/04/27 06:03:08;;;;;;;14.60;13.02;;;;;;;;;;5018278;28;20175;-87
2021/04/27 06:05:34;;;;;;;18.20;13.87;;;;;;;;;;5036883;28;20171;-86
2021/04/27 06:08:00;;;;;;;16.20;12.87;;;;;;;;;;5033964;28;20560;-87
2021/04/27 06:10:26;;;;;;;20.95;14.95;;;;;;;;;;5019497;28;20444;-85
2021/04/27 06:12:52;;;;;;;19.02;14.18;;;;;;;;;;5022910;28;20187;-85
2021/04/27 06:15:18;;;;;;;18.03;12.90;;;;;;;;;;5018475;28;20193;-83
2021/04/27 06:17:45;;;;;;;18.58;13.60;;;;;;;;;;5033763;28;20471;-81
2021/04/27 06:20:12;;;;;;;21.02;14.57;;;;;;;;;;5024802;28;20181;-85
2021/04/27 06:22:38;;;;;;;19.58;14.00;;;;;;;;;;5000752;28;20560;-84
2021/04/27 06:25:06;;;;;;;16.65;12.80;;;;;;;;;;5035718;28;20657;-84
2021/04/27 06:27:32;;;;;;;17.95;12.98;;;;;;;;;;5011942;28;20191;-86
2021/04/27 06:30:00;;;;;;;14.18;12.68;;;;;;;;;;5017417;28;20178;-87
2021/04/27 06:32:26;;;;;;;14.57;13.18;;;;;;;;;;5017646;28;20688;-87
2021/04/27 06:34:52;;;;;;;16.25;14.10;;;;;;;;;;4999199;28;20229;-87
2021/04/27 06:37:18;;;;;;;18.58;12.88;;;;;;;;;;5017761;28;20257;-85
2021/04/27 06:39:44;;;;;;;17.65;13.52;;;;;;;;;;5015664;28;20496;-86
2021/04/27 06:42:10;;;;;;;17.58;13.00;;;;;;;;;;5039318;28;20211;-87
2021/04/27 06:44:37;;;;;;;19.38;13.27;;;;;;;;;;5043534;28;20182;-85
2021/04/27 06:47:04;;;;;;;18.98;14.32;;;;;;;;;;5039816;28;20541;-84
2021/04/27 06:49:30;;;;;;;17.40;13.70;;;;;;;;;;5055728;28;20194;-87
2021/04/27 06:51:56;;;;;;;17.55;13.65;;;;;;;;;;5023131;28;20205;-81
2021/04/27 06:54:22;;;;;;;17.77;12.85;;;;;;;;;;5040085;28;20189;-82
2021/04/27 06:56:48;;;;;;;15.77;13.55;;;;;;;;;;5051458;28;20201;-84
2021/04/27 06:59:16;;;;;;;18.52;13.50;;;;;;;;;;5040860;28;20651;-81
2021/04/27 07:01:42;;;;;;;17.80;15.07;;;;;;;;;;5034490;28;20186;-80
2021/04/27 07:04:08;;;;;;;16.17;13.23;;;;;;;;;;5029743;28;20190;-81
2021/04/27 07:06:34;;;;;;;19.70;13.18;;;;;;;;;;5033238;28;20189;-82
2021/04/27 07:09:00;;;;;;;20.25;13.20;;;;;;;;;;5040344;28;20189;-81
2021/04/27 07:11:26;;;;;;;14.95;13.35;;;;;;;;;;5054415;28;20247;-81
2021/04/27 07:13:52;;;;;;;16.92;12.80;;;;;;;;;;5036873;28;20190;-79
2021/04/27 07:16:19;;;;;;;18.48;14.00;;;;;;;;;;5051617;28;20363;-82
2021/04/27 07:18:46;;;;;;;16.08;13.30;;;;;;;;;;5057302;28;20178;-83
2021/04/27 07:21:13;;;;;;;19.90;13.93;;;;;;;;;;5042621;28;20206;-82
2021/04/27 07:23:39;;;;;;;14.23;12.23;;;;;;;;;;5041431;28;20610;-81
2021/04/27 07:26:07;;;;;;;14.20;12.40;;;;;;;;;;5037797;28;20178;-81
2021/04/27 07:28:33;;;;;;;15.65;13.35;;;;;;;;;;5055714;28;20274;-84
2021/04/27 07:30:59;;;;;;;17.13;11.88;;;;;;;;;;5025415;28;20209;-80
2021/04/27 07:33:25;;;;;;;15.03;13.53;;;;;;;;;;5043503;28;20213;-81
2021/04/27 07:35:51;;;;;;;16.17;12.85;;;;;;;;;;5042170;28;20420;-80
2021/04/27 07:38:17;;;;;;;20.00;13.20;;;;;;;;;;5052071;28;20208;-82
2021/04/27 07:40:43;;;;;;;19.65;13.27;;;;;;;;;;5034961;28;20186;-78
2021/04/27 07:43:09;;;;;;;15.48;12.88;;;;;;;;;;5040138;28;20249;-82
2021/04/27 07:45:36;;;;;;;16.08;13.30;;;;;;;;;;5039606;28;20214;-83
2021/04/27 07:48:04;;;;;;;17.05;13.75;;;;;;;;;;5036981;28;20212;-82
2021/04/27 07:50:30;;;;;;;16.45;13.13;;;;;;;;;;5056745;28;20647;-80
2021/04/27 07:52:56;;;;;;;17.05;12.95;;;;;;;;;;5043835;28;20189;-80
2021/04/27 07:55:22;;;;;;;17.67;13.02;;;;;;;;;;5036723;28;20197;-83
2021/04/27 07:57:48;;;;;;;13.63;12.20;;;;;;;;;;5044850;28;20209;-82
2021/04/27 08:00:15;;;;;;;13.80;12.18;;;;;;;;;;5038691;28;20177;-78
2021/04/27 08:02:41;;;;;;;18.77;12.48;;;;;;;;;;5058382;28;20635;-80
2021/04/27 08:05:08;;;;;;;17.05;12.45;;;;;;;;;;5043569;28;20189;-83
2021/04/27 08:07:34;;;;;;;17.55;11.23;;;;;;;;;;5031787;28;20190;-83
2021/04/27 08:10:01;;;;;;;18.33;12.70;;;;;;;;;;5031966;28;20190;-84
2021/04/27 08:12:27;;;;;;;17.08;11.93;;;;;;;;;;5034575;28;20194;-83
2021/04/27 08:14:53;;;;;;;13.27;11.23;;;;;;;;;;5041090;28;20265;-82
2021/04/27 08:17:19;;;;;;;13.75;11.70;;;;;;;;;;5053020;28;20473;-83
2021/04/27 08:19:47;;;;;;;16.85;13.60;;;;;;;;;;5022997;28;20178;-79
2021/04/27 08:22:13;;;;;;;13.95;11.70;;;;;;;;;;5022428;28;20185;-79
2021/04/27 08:24:44;;;;;;;19.05;12.95;;;;;;;;;;5015159;28;20214;-80
2021/04/27 08:27:10;;;;;;;15.02;11.95;;;;;;;;;;5024976;28;20193;-77
2021/04/27 08:29:36;;;;;;;12.05;10.50;;;;;;;;;;5041466;28;20182;-81
2021/04/27 08:32:02;;;;;;;21.42;13.15;;;;;;;;;;5043545;28;20220;-78
2021/04/27 08:34:28;;;;;;;14.70;11.23;;;;;;;;;;5025645;28;20179;-76
2021/04/27 08:36:54;;;;;;;13.20;10.93;;;;;;;;;;5041737;28;20463;-83
2021/04/27 08:39:20;;;;;;;14.73;11.82;;;;;;;;;;5033057;28;20889;-84
2021/04/27 08:41:47;;;;;;;14.55;12.07;;;;;;;;;;5040275;28;20181;-86
2021/04/27 08:44:13;;;;;;;11.95;10.85;;;;;;;;;;5048735;28;20747;-85
2021/04/27 08:46:39;;;;;;;15.55;9.73;;;;;;;;;;5014654;28;20190;-82
2021/04/27 08:49:05;;;;;;;14.27;11.35;;;;;;;;;;5044185;28;20336;-85
2021/04/27 08:51:31;;;;;;;14.88;10.98;;;;;;;;;;5044679;28;20185;-80
2021/04/27 08:53:57;;;;;;;12.60;10.43;;;;;;;;;;5036657;28;20170;-80
2021/04/27 08:56:24;;;;;;;12.43;10.53;;;;;;;;;;5054930;28;20241;-81
2021/04/27 08:58:52;;;;;;;12.73;10.10;;;;;;;;;;5034475;28;20470;-81
2021/04/27 09:01:18;;;;;;;12.00;10.38;;;;;;;;;;5039812;28;20175;-82
2021/04/27 09:03:46;;;;;;;13.63;9.98;;;;;;;;;;5058437;28;20264;-82
2021/04/27 09:06:12;;;;;;;11.02;9.00;;;;;;;;;;5053311;28;20186;-83
2021/04/27 09:08:40;;;;;;;14.48;10.07;;;;;;;;;;5033159;28;20170;-82
2021/04/27 09:11:25;;;;;;;13.48;9.80;;;;;;;;;;5031806;28;20178;-80
2021/04/27 09:14:06;;;;;;;12.70;9.80;;;;;;;;;;5038239;28;20217;-80
2021/04/27 09:16:32;;;;;;;11.07;8.73;;;;;;;;;;5038117;28;20207;-84
2021/04/27 09:18:59;;;;;;;12.05;10.23;;;;;;;;;;5017329;28;20205;-80
2021/04/27 09:21:33;;;;;;;13.13;10.20;;;;;;;;;;5026031;28;20241;-79
2021/04/27 09:23:59;;;;;;;13.80;9.10;;;;;;;;;;5038911;28;20855;-80
2021/04/27 09:26:26;;;;;;;13.27;9.75;;;;;;;;;;5052370;28;20583;-85
2021/04/27 09:28:53;;;;;;;11.63;10.30;;;;;;;;;;5018470;28;20179;-76
2021/04/27 09:31:23;;;;;;;11.80;9.07;;;;;;;;;;5034928;28;20220;-79
2021/04/27 09:33:50;;;;;;;12.50;11.07;;;;;;;;;;5056086;28;20257;-84
2021/04/27 09:36:23;;;;;;;16.90;10.30;;;;;;;;;;5038515;28;20185;-83
2021/04/27 09:38:52;;;;;;;10.70;9.65;;;;;;;;;;5053714;28;20247;-84
2021/04/27 09:41:22;;;;;;;14.77;10.85;;;;;;;;;;5053135;28;20177;-82
2021/04/27 09:43:50;;;;;;;14.85;9.27;;;;;;;;;;5037642;28;20181;-84
2021/04/27 09:46:17;;;;;;;10.60;9.50;;;;;;;;;;5039127;28;20171;-80
2021/04/27 09:48:44;;;;;;;11.55;10.07;;;;;;;;;;5037917;28;20210;-85
2021/04/27 09:51:13;;;;;;;13.50;11.15;;;;;;;;;;5034053;28;20174;-83
2021/04/27 09:53:51;;;;;;;13.73;11.40;;;;;;;;;;5038393;28;20192;-81
2021/04/27 09:56:36;;;;;;;14.55;11.32;;;;;;;;;;5043046;28;20712;-83
2021/04/27 09:59:03;;;;;;;13.57;10.95;;;;;;;;;;5036580;28;20174;-80
2021/04/27 10:01:30;;;;;;;13.63;9.90;;;;;;;;;;5025877;28;20179;-82
2021/04/27 10:03:56;;;;;;;14.98;10.02;;;;;;;;;;5057021;28;20192;-81
2021/04/27 10:06:22;;;;;;;14.95;10.80;;;;;;;;;;5037912;28;20201;-80
2021/04/27 10:08:49;;;;;;;13.13;11.35;;;;;;;;;;5036940;28;20204;-85
2021/04/27 10:11:15;;;;;;;11.27;10.02;;;;;;;;;;5031551;28;20187;-83
2021/04/27 10:13:42;;;;;;;11.70;10.07;;;;;;;;;;5021753;28;20190;-83
2021/04/27 10:16:08;;;;;;;12.90;10.85;;;;;;;;;;5021458;28;20187;-78
2021/04/27 10:18:34;;;;;;;15.30;10.83;;;;;;;;;;5033867;28;20225;-81
2021/04/27 10:21:04;;;;;;;12.65;10.02;;;;;;;;;;5037122;28;20459;-83
2021/04/27 10:23:31;;;;;;;11.50;10.18;;;;;;;;;;5043387;28;20169;-84
2021/04/27 10:25:57;;;;;;;10.98;9.35;;;;;;;;;;5018202;28;20325;-86
2021/04/27 10:28:23;;;;;;;9.98;8.80;;;;;;;;;;5016146;28;20187;-83
2021/04/27 10:30:49;;;;;;;9.23;8.32;;;;;;;;;;5054775;28;20174;-81
2021/04/27 10:33:16;;;;;;;13.35;8.73;;;;;;;;;;5037962;28;20269;-80
2021/04/27 10:35:44;;;;;;;8.82;7.93;;;;;;;;;;5021543;28;20178;-84
2021/04/27 10:38:18;;;;;;;9.45;8.43;;;;;;;;;;5025479;28;20230;-80
2021/04/27 10:40:54;;;;;;;8.48;7.57;;;;;;;;;;5038059;28;20210;-82
2021/04/27 10:43:23;;;;;;;11.02;8.15;;;;;;;;;;5031533;28;20699;-81
2021/04/27 10:45:59;;;;;;;9.15;7.18;;;;;;;;;;5041132;28;20335;-79
2021/04/27 10:48:36;;;;;;;9.55;6.45;;;;;;;;;;5026893;28;20185;-79
2021/04/27 10:51:20;;;;;;;9.23;7.18;;;;;;;;;;5022469;28;20181;-83
2021/04/27 10:54:08;;;;;;;8.85;7.25;;;;;;;;;;5051684;28;20182;-84
2021/04/27 10:56:37;;;;;;;7.15;6.25;;;;;;;;;;5041517;28;20201;-79
2021/04/27 10:59:07;;;;;;;8.65;7.65;;;;;;;;;;5031572;28;20182;-81
2021/04/27 11:01:33;;;;;;;8.20;7.00;;;;;;;;;;5014276;28;20236;-79
2021/04/27 11:04:00;;;;;;;7.60;6.30;;;;;;;;;;5033273;28;20693;-83
2021/04/27 11:06:26;;;;;;;7.13;6.40;;;;;;;;;;5055986;28;20182;-83
2021/04/27 11:08:58;;;;;;;8.02;6.35;;;;;;;;;;5045147;28;20687;-84
2021/04/27 11:11:34;;;;;;;10.40;7.05;;;;;;;;;;5043865;28;20178;-83
2021/04/27 11:14:13;;;;;;;9.15;7.53;;;;;;;;;;5043526;28;20185;-84
2021/04/27 11:16:40;;;;;;;7.72;6.95;;;;;;;;;;5039979;28;20213;-82
2021/04/27 11:19:21;;;;;;;9.57;6.50;;;;;;;;;;5016560;28;20192;-83
2021/04/27 11:21:48;;;;;;;8.00;6.40;;;;;;;;;;5058630;28;20245;-81
2021/04/27 11:24:29;;;;;;;6.25;5.30;;;;;;;;;;5060535;28;20254;-84
2021/04/27 11:26:56;;;;;;;9.40;6.60;;;;;;;;;;5041662;28;20237;-84
2021/04/27 11:29:23;;;;;;;7.18;6.43;;;;;;;;;;5057028;28;20178;-83
2021/04/27 11:32:04;;;;;;;10.65;7.57;;;;;;;;;;5046360;28;20177;-84
2021/04/27 11:34:31;;;;;;;9.10;7.90;;;;;;;;;;5040374;28;20265;-85
2021/04/27 11:36:59;;;;;;;12.27;7.97;;;;;;;;;;5025649;28;20206;-83
2021/04/27 11:39:27;;;;;;;8.65;7.50;;;;;;;;;;5038926;28;20212;-84
2021/04/27 11:41:57;;;;;;;11.52;7.97;;;;;;;;;;5051905;28;20309;-83
2021/04/27 11:44:30;;;;;;;10.95;8.15;;;;;;;;;;5038710;28;20192;-85
2021/04/27 11:47:17;;;;;;;10.88;8.07;;;;;;;;;;5025562;28;20253;-88
2021/04/27 11:50:04;;;;;;;11.68;9.13;;;;;;;;;;5025026;28;20285;-91
2021/04/27 11:52:37;;;;;;;9.68;7.55;;;;;;;;;;5052476;28;20187;-88
2021/04/27 11:55:05;;;;;;;9.25;8.02;;;;;;;;;;5034065;28;20257;-88
2021/04/27 11:57:31;;;;;;;12.63;8.80;;;;;;;;;;5055656;28;20202;-89
2021/04/27 12:00:01;;;;;;;11.93;8.00;;;;;;;;;;5027908;28;20623;-89
2021/04/27 12:02:33;;;;;;;8.15;6.82;;;;;;;;;;5055928;28;20428;-89
2021/04/27 12:04:59;;;;;;;8.18;6.60;;;;;;;;;;5057037;28;20214;-87
2021/04/27 12:07:26;;;;;;;8.55;7.00;;;;;;;;;;5012245;28;20188;-87
2021/04/27 12:09:53;;;;;;;8.90;7.68;;;;;;;;;;5045182;28;20191;-90
2021/04/27 12:12:20;;;;;;;7.45;6.65;;;;;;;;;;5055032;28;20218;-89
2021/04/27 12:14:50;;;;;;;11.10;8.30;;;;;;;;;;5055282;28;20195;-81
2021/04/27 12:17:26;;;;;;;12.33;8.03;;;;;;;;;;5040515;28;20439;-87
2021/04/27 12:20:03;;;;;;;8.90;8.03;;;;;;;;;;5020714;28;20491;-85
2021/04/27 12:22:33;;;;;;;8.67;7.77;;;;;;;;;;5036437;28;20857;-87
2021/04/27 12:24:59;;;;;;;7.97;7.17;;;;;;;;;;5017351;28;20764;-86
2021/04/27 12:27:25;;;;;;;7.50;6.43;;;;;;;;;;5054591;28;20507;-84
2021/04/27 12:30:10;;;;;;;7.00;6.30;;;;;;;;;;5055884;28;20426;-87
2021/04/27 12:32:39;;;;;;;5.63;5.10;;;;;;;;;;5043927;28;20444;-86
2021/04/27 12:35:05;;;;;;;6.73;5.80;;;;;;;;;;5032701;28;20469;-82
2021/04/27 12:37:35;;;;;;;6.13;5.53;;;;;;;;;;5034606;28;20475;-88
2021/04/27 12:40:02;;;;;;;8.00;5.50;;;;;;;;;;5024450;28;20475;-86
2021/04/27 12:42:29;;;;;;;8.37;6.23;;;;;;;;;;5051614;28;20403;-87
2021/04/27 12:44:57;;;;;;;6.80;6.00;;;;;;;;;;5053515;28;20765;-83
2021/04/27 12:47:26;;;;;;;5.47;4.97;;;;;;;;;;5027971;28;20388;-85
2021/04/27 12:49:56;;;;;;;5.67;5.03;;;;;;;;;;5033807;28;20468;-85
2021/04/27 12:52:22;;;;;;;8.27;6.10;;;;;;;;;;5036370;28;20452;-85
2021/04/27 12:54:55;;;;;;;8.47;6.37;;;;;;;;;;5042723;28;20447;-85
2021/04/27 12:57:22;;;;;;;8.00;7.20;;;;;;;;;;5047362;28;20473;-81
2021/04/27 12:59:53;;;;;;;6.87;6.20;;;;;;;;;;5024013;28;20397;-80
2021/04/27 13:02:19;;;;;;;7.87;7.10;;;;;;;;;;5054262;28;20436;-80
2021/04/27 13:04:46;;;;;;;6.53;5.80;;;;;;;;;;5043424;28;20403;-81
2021/04/27 13:07:21;;;;;;;7.13;6.43;;;;;;;;;;5043018;28;20442;-82
2021/04/27 13:09:48;;;;;;;6.60;6.07;;;;;;;;;;5043501;28;20418;-81
2021/04/27 13:12:15;;;;;;;7.13;5.90;;;;;;;;;;5059325;28;20498;-82
2021/04/27 13:14:42;;;;;;;8.67;6.37;;;;;;;;;;5028265;28;20450;-78
2021/04/27 13:17:24;;;;;;;8.03;6.00;;;;;;;;;;5035578;28;20442;-79
2021/04/27 13:19:51;;;;;;;6.30;5.70;;;;;;;;;;5030776;28;20444;-83
2021/04/27 13:22:19;;;;;;;6.57;6.07;;;;;;;;;;5016415;28;20443;-85
2021/04/27 13:24:55;;;;;;;6.87;6.13;;;;;;;;;;5022163;28;20852;-80
2021/04/27 13:27:25;;;;;;;5.40;4.90;;;;;;;;;;5038873;28;20417;-84
2021/04/27 13:30:01;;;;;;;6.80;6.20;;;;;;;;;;5048567;28;20452;-83
2021/04/27 13:32:27;;;;;;;7.13;6.37;;;;;;;;;;5055526;28;20431;-83
2021/04/27 13:34:53;;;;;;;6.47;5.87;;;;;;;;;;5052167;28;21057;-86
2021/04/27 13:37:19;;;;;;;5.90;5.40;;;;;;;;;;5038079;28;20465;-85
2021/04/27 13:39:45;;;;;;;6.13;5.53;;;;;;;;;;5024578;28;20433;-85
2021/04/27 13:42:11;;;;;;;7.83;6.67;;;;;;;;;;5055104;28;20410;-85
2021/04/27 13:44:37;;;;;;;7.30;5.87;;;;;;;;;;5054617;28;20400;-83
2021/04/27 13:47:04;;;;;;;6.30;5.80;;;;;;;;;;5014240;28;20425;-85
2021/04/27 13:49:33;;;;;;;7.13;5.97;;;;;;;;;;5021375;28;21029;-83
2021/04/27 13:52:00;;;;;;;9.33;6.63;;;;;;;;;;5036802;28;20981;-84
2021/04/27 13:54:26;;;;;;;6.60;5.97;;;;;;;;;;5040404;28;20444;-82
2021/04/27 13:56:52;;;;;;;6.63;6.00;;;;;;;;;;5038488;28;20437;-83
2021/04/27 13:59:18;;;;;;;6.00;5.40;;;;;;;;;;5038411;28;20455;-83
2021/04/27 14:01:45;;;;;;;9.40;6.07;;;;;;;;;;5027931;28;20439;-85
2021/04/27 14:04:12;;;;;;;11.67;6.23;;;;;;;;;;5050546;28;20736;-82
2021/04/27 14:06:38;;;;;;;8.83;7.17;;;;;;;;;;5031677;28;20770;-82
2021/04/27 14:09:04;;;;;;;7.10;6.40;;;;;;;;;;5047702;28;20414;-86
2021/04/27 14:11:30;;;;;;;7.93;6.80;;;;;;;;;;5037026;28;20428;-85
2021/04/27 14:13:56;;;;;;;8.30;6.37;;;;;;;;;;5053918;28;20504;-84
2021/04/27 14:16:22;;;;;;;8.40;6.53;;;;;;;;;;5041152;28;20471;-83
2021/04/27 14:18:48;;;;;;;7.10;6.07;;;;;;;;;;5029362;28;20434;-83
2021/04/27 14:21:14;;;;;;;9.13;6.57;;;;;;;;;;5046096;28;20481;-83
2021/04/27 14:23:40;;;;;;;7.10;6.00;;;;;;;;;;5035692;28;20660;-82
2021/04/27 14:26:12;;;;;;;8.20;7.20;;;;;;;;;;5050384;28;20443;-84
2021/04/27 14:28:38;;;;;;;9.70;7.40;;;;;;;;;;5013508;28;20196;-83